Weather at Melbourne Moorabbin Airport

Public forecast

Using degrees Celsius for public forecast. Weather courtesy of forecast.io.

Closest aviation weather report (METAR) to Melbourne Moorabbin Airport

Report is more than 6 hours old.

Closest report is Melbourne Essendon Airport, 17.6 nm (32.7 km) NNW. Retrieved 2022/08/06 17:17 UTC (3 days ago):

YMEN 061717Z AUTO 27003KT 9999 // SCT010 BKN028 OVC041 08/08 Q1013

Closest aviation forecast (TAF) to Melbourne Moorabbin Airport

Closest forecast is Melbourne International Airport, 21.9 nm (40.6 km) NW. Retrieved 2022/08/09 06:36 UTC (2 hours ago):

TAF YMML 090510Z 0906/1012 19007KT 9999 SCT040 FM091000 36005KT CAVOK BECMG 1000/1002 02012KT 9999 SCT040